^^
Station Historical Data
Daily Summary for March 16, 2017 Units:  Metric    English   Both
« Previous Day
Next Day »
Daily Weekly Monthly Yearly Custom
  High: Low: Average:
Temperature: 34.2 °C 13.4 °C 22.6 °C
Dew Point: 9.6 °C 1.2 °C 6.1 °C
Humidity: 70% 14% 41%
Wind Speed: 14.3km/h 0km/h 3.2km/h
Wind Gust: 27.4km/h - -
Wind- - WSW
Pressure: 1012.1 hPa 1006.3 hPa -
Precipitation: 0 mm    
Historical Graphs
 
 
Tabular Data for March 16, 2017
Time Temperature Dew Point Pressure Wind Wind Speed Wind Gust Humidity Rainfall Rate (Hourly) solar Conditions
00:01 20.3 °C 9.2 °C 1010.7 hPa SSW 9.7 km/h 16.1 km/h 49% 0 mm 0.0 W/m2
00:09 20.2 °C 9.1 °C 1010.7 hPa SSW 14.3 km/h 17.7 km/h 49% 0 mm 0.0 W/m2
00:28 19.7 °C 9 °C 1010.7 hPa SSW 9.7 km/h 11.3 km/h 50% 0 mm 0.0 W/m2
00:33 19.6 °C 8.9 °C 1010.7 hPa SSW 6.4 km/h 9.7 km/h 50% 0 mm 0.0 W/m2
00:38 19.4 °C 8.7 °C 1010.7 hPa SSW 7.9 km/h 8 km/h 50% 0 mm 0.0 W/m2
00:48 19.2 °C 8.8 °C 1010.7 hPa SSW 4.7 km/h 9.7 km/h 51% 0 mm 0.0 W/m2
00:54 19.2 °C 8.8 °C 1010.7 hPa SSW 6.4 km/h 9.7 km/h 51% 0 mm 0.0 W/m2
00:59 19.1 °C 8.7 °C 1010.7 hPa SSW 6.4 km/h 9.7 km/h 51% 0 mm 0.0 W/m2
01:04 19.1 °C 8.7 °C 1010.7 hPa SSW 9.7 km/h 9.7 km/h 51% 0 mm 0.0 W/m2
01:09 19 °C 8.6 °C 1010.4 hPa SSW 9.7 km/h 12.9 km/h 51% 0 mm 0.0 W/m2
01:19 19.1 °C 8.7 °C 1010.4 hPa SSW 7.9 km/h 9.7 km/h 51% 0 mm 0.0 W/m2
01:24 18.9 °C 8.5 °C 1010.4 hPa SSW 6.4 km/h 8 km/h 51% 0 mm 0.0 W/m2
01:29 18.8 °C 8.4 °C 1010.4 hPa SSW 7.9 km/h 8 km/h 51% 0 mm 0.0 W/m2
01:34 18.7 °C 8.4 °C 1010.4 hPa SSW 6.4 km/h 6.4 km/h 51% 0 mm 0.0 W/m2
01:40 18.6 °C 8.8 °C 1010.4 hPa SSW 11.1 km/h 12.9 km/h 53% 0 mm 0.0 W/m2
01:49 18.7 °C 8.6 °C 1010 hPa SSW 6.4 km/h 11.3 km/h 52% 0 mm 0.0 W/m2
01:59 18.6 °C 8.6 °C 1010 hPa SSW 6.4 km/h 9.7 km/h 52% 0 mm 0.0 W/m2
02:04 18.5 °C 8.5 °C 1010 hPa SSW 9.7 km/h 11.3 km/h 52% 0 mm 0.0 W/m2
02:09 18.4 °C 8.6 °C 1010 hPa SSW 6.4 km/h 9.7 km/h 53% 0 mm 0.0 W/m2
02:15 18.3 °C 8.6 °C 1010 hPa SSW 7.9 km/h 9.7 km/h 53% 0 mm 0.0 W/m2
02:24 18.2 °C 8.5 °C 1010 hPa SSW 6.4 km/h 8 km/h 53% 0 mm 0.0 W/m2
02:30 18.1 °C 8.6 °C 1010 hPa SSW 4.7 km/h 6.4 km/h 54% 0 mm 0.0 W/m2
02:35 18 °C 8.6 °C 1010 hPa SSW 7.9 km/h 8 km/h 54% 0 mm 0.0 W/m2
02:40 18 °C 8.6 °C 1010 hPa SSW 6.4 km/h 9.7 km/h 54% 0 mm 0.0 W/m2
02:45 18 °C 8.6 °C 1010 hPa SSW 6.4 km/h 8 km/h 54% 0 mm 0.0 W/m2
02:55 17.8 °C 8.4 °C 1010 hPa SSW 7.9 km/h 9.7 km/h 54% 0 mm 0.0 W/m2
03:00 17.7 °C 8.5 °C 1010 hPa SSW 7.9 km/h 9.7 km/h 55% 0 mm 0.0 W/m2
03:05 17.7 °C 8.5 °C 1010 hPa SSW 7.9 km/h 8 km/h 55% 0 mm 0.0 W/m2
03:10 17.6 °C 8.5 °C 1010 hPa SSW 7.9 km/h 11.3 km/h 55% 0 mm 0.0 W/m2
03:15 17.6 °C 8.5 °C 1010 hPa SSW 6.4 km/h 9.7 km/h 55% 0 mm 0.0 W/m2
03:20 17.6 °C 8.5 °C 1010 hPa SSW 6.4 km/h 8 km/h 55% 0 mm 0.0 W/m2
03:25 17.4 °C 8.3 °C 1010 hPa SSW 6.4 km/h 6.4 km/h 55% 0 mm 0.0 W/m2
03:30 17.3 °C 8.4 °C 1010 hPa SSW 6.4 km/h 8 km/h 56% 0 mm 0.0 W/m2
03:36 17.1 °C 8.3 °C 1010 hPa SSW 4.7 km/h 8 km/h 56% 0 mm 0.0 W/m2
03:41 16.9 °C 8.1 °C 1010 hPa SSW 6.4 km/h 6.4 km/h 56% 0 mm 0.0 W/m2
03:46 16.8 °C 8.2 °C 1010 hPa SSW 3.2 km/h 6.4 km/h 57% 0 mm 0.0 W/m2
03:51 16.7 °C 7.9 °C 1010 hPa Calm     56% 0 mm 0.0 W/m2
03:56 16.5 °C 8 °C 1010 hPa Calm     57% 0 mm 0.0 W/m2
04:02 16.3 °C 8 °C 1010 hPa Calm     58% 0 mm 0.0 W/m2
04:07 16.1 °C 7.8 °C 1010 hPa Calm     58% 0 mm 0.0 W/m2
04:17 15.8 °C 8 °C 1010 hPa Calm     60% 0 mm 0.0 W/m2
04:22 15.7 °C 7.7 °C 1010 hPa Calm     59% 0 mm 0.0 W/m2
04:27 15.6 °C 7.9 °C 1010 hPa Calm     60% 0 mm 0.0 W/m2
04:37 15.5 °C 8 °C 1010 hPa Calm     61% 0 mm 0.0 W/m2
04:42 15.3 °C 8.1 °C 1010 hPa Calm     62% 0 mm 0.0 W/m2
04:48 15.2 °C 7.7 °C 1010 hPa Calm     61% 0 mm 0.0 W/m2
04:53 15.1 °C 7.9 °C 1010 hPa Calm     62% 0 mm 0.0 W/m2
04:58 14.9 °C 7.9 °C 1010 hPa Calm     63% 0 mm 0.0 W/m2
05:03 14.7 °C 7.5 °C 1010 hPa Calm     62% 0 mm 0.0 W/m2
05:08 14.7 °C 7.7 °C 1010.4 hPa Calm     63% 0 mm 0.0 W/m2
05:13 14.6 °C 7.6 °C 1010 hPa Calm     63% 0 mm 0.0 W/m2
05:18 14.6 °C 7.9 °C 1010.4 hPa Calm     64% 0 mm 0.0 W/m2
05:24 14.6 °C 7.6 °C 1010.4 hPa Calm     63% 0 mm 0.0 W/m2
05:29 14.6 °C 8.1 °C 1010.4 hPa Calm     65% 0 mm 0.0 W/m2
05:34 14.6 °C 7.6 °C 1010.4 hPa Calm     63% 0 mm 0.0 W/m2
05:39 14.6 °C 7.6 °C 1010.4 hPa Calm     63% 0 mm 0.0 W/m2
05:44 14.6 °C 7.9 °C 1010.4 hPa Calm     64% 0 mm 0.0 W/m2
05:49 14.4 °C 7.7 °C 1010.4 hPa Calm     64% 0 mm 0.0 W/m2
05:54 14.3 °C 7.4 °C 1010.4 hPa Calm     63% 0 mm 0.0 W/m2
06:04 14.2 °C 7.7 °C 1010.7 hPa Calm     65% 0 mm 0.0 W/m2
06:10 14.2 °C 7.9 °C 1010.7 hPa Calm     66% 0 mm 0.0 W/m2
06:15 14.2 °C 7.7 °C 1010.7 hPa Calm     65% 0 mm 0.0 W/m2
06:21 14.1 °C 7.8 °C 1010.7 hPa Calm     66% 0 mm 0.0 W/m2
06:31 14 °C 7.7 °C 1010.7 hPa Calm     66% 0 mm 0.0 W/m2
06:36 14 °C 7.7 °C 1011.1 hPa Calm     66% 0 mm 0.0 W/m2
06:41 13.9 °C 7.7 °C 1011.1 hPa Calm     66% 0 mm 0.0 W/m2
06:46 13.7 °C 7.7 °C 1011.1 hPa Calm     67% 0 mm 0.0 W/m2
06:51 13.5 °C 7.3 °C 1011.1 hPa Calm     66% 0 mm 5.0 W/m2
06:57 13.4 °C 7.8 °C 1011.1 hPa Calm     69% 0 mm 7.0 W/m2
07:02 13.4 °C 8 °C 1011.1 hPa Calm   1.6 km/h 70% 0 mm 12.0 W/m2
07:07 13.8 °C 8.4 °C 1011.4 hPa Calm   1.6 km/h 70% 0 mm 14.0 W/m2
07:12 14.2 °C 8.2 °C 1011.4 hPa Calm     67% 0 mm 21.0 W/m2
07:17 14.6 °C 8.3 °C 1011.4 hPa Calm     66% 0 mm 35.0 W/m2
07:23 15 °C 8.5 °C 1011.4 hPa Calm     65% 0 mm 49.0 W/m2
07:30 15.4 °C 8.6 °C 1011.4 hPa Calm     64% 0 mm 65.0 W/m2
07:43 16.2 °C 8.9 °C 1011.4 hPa Calm     62% 0 mm 102.0 W/m2
07:51 17.3 °C 9.5 °C 1011.7 hPa Calm     60% 0 mm 169.0 W/m2
08:13 18.6 °C 9.4 °C 1011.7 hPa Calm     55% 0 mm 241.0 W/m2
08:17 19.3 °C 9.5 °C 1011.7 hPa Calm     53% 0 mm 274.0 W/m2
08:29 19.7 °C 9.6 °C 1012.1 hPa Calm     52% 0 mm 315.0 W/m2
08:38 20.4 °C 9.3 °C 1012.1 hPa Calm     49% 0 mm 352.0 W/m2
08:52 21.2 °C 5.9 °C 1012.1 hPa Calm     37% 0 mm 406.0 W/m2
08:57 21.4 °C 5.7 °C 1012.1 hPa Calm     36% 0 mm 422.0 W/m2
09:08 22.1 °C 6.7 °C 1012.1 hPa Calm     37% 0 mm 459.0 W/m2
09:20 22.6 °C 6.8 °C 1012.1 hPa Calm     36% 0 mm 487.0 W/m2
10:29 25.5 °C 4.6 °C 1012.1 hPa West 7.9 km/h 19.3 km/h 26% 0 mm 694.0 W/m2
10:49 25.8 °C 4.3 °C 1012.1 hPa West 13 km/h 17.7 km/h 25% 0 mm 729.0 W/m2
11:09 26.4 °C 4.2 °C 1012.1 hPa WNW 11.1 km/h 19.3 km/h 24% 0 mm 786.0 W/m2
11:21 26.7 °C 5.6 °C 1012.1 hPa WNW 7.9 km/h 19.3 km/h 26% 0 mm 800.0 W/m2
12:11 28.7 °C 4.9 °C 1011.4 hPa NW 4.7 km/h 19.3 km/h 22% 0 mm 867.0 W/m2
12:15 28.8 °C 4.3 °C 1011.1 hPa NW 9.7 km/h 22.5 km/h 21% 0 mm 872.0 W/m2
12:23 28.8 °C 4.3 °C 1011.1 hPa NW 13 km/h 17.7 km/h 21% 0 mm 875.0 W/m2
12:25 29.2 °C 4.6 °C 1011.1 hPa NW 13 km/h 17.7 km/h 21% 0 mm 877.0 W/m2
12:40 29.2 °C 3.9 °C 1010.7 hPa NW 14.3 km/h 14.5 km/h 20% 0 mm 884.0 W/m2
12:50 29.7 °C 3.6 °C 1010.7 hPa NW 11.1 km/h 19.3 km/h 19% 0 mm 886.0 W/m2
12:59 29.6 °C 2.8 °C 1010.4 hPa NW 13 km/h 20.9 km/h 18% 0 mm 888.0 W/m2
13:07 30.2 °C 2.4 °C 1010.4 hPa Calm   17.7 km/h 17% 0 mm 886.0 W/m2
13:12 30.7 °C 2.9 °C 1010 hPa NW 7.9 km/h 22.5 km/h 17% 0 mm 886.0 W/m2
13:18 30.8 °C 3.7 °C 1010 hPa Calm   3.2 km/h 18% 0 mm 882.0 W/m2
13:24 30.9 °C 3 °C 1010 hPa NNW 13 km/h 19.3 km/h 17% 0 mm 882.0 W/m2
13:30 31.2 °C 3.3 °C 1010 hPa Calm   17.7 km/h 17% 0 mm 879.0 W/m2
13:35 31.2 °C 3.3 °C 1009.7 hPa NNW 1.4 km/h 3.2 km/h 17% 0 mm 875.0 W/m2
13:51 31.6 °C 3.6 °C 1009.4 hPa Calm   27.4 km/h 17% 0 mm 860.0 W/m2
14:07 31.8 °C 3.7 °C 1009.4 hPa NNW 3.2 km/h 8 km/h 17% 0 mm 847.0 W/m2
14:16 32.2 °C 3.2 °C 1009 hPa NNW 13 km/h 14.5 km/h 16% 0 mm 833.0 W/m2
14:25 32.1 °C 3.1 °C 1009 hPa North 6.4 km/h 6.4 km/h 16% 0 mm 817.0 W/m2
15:47 33.7 °C 3.5 °C 1007.7 hPa NNW 1.4 km/h 17.7 km/h 15% 0 mm 624.0 W/m2
16:18 33.3 °C 3.2 °C 1007.3 hPa NNW 7.9 km/h 8 km/h 15% 0 mm 538.0 W/m2
16:23 33.7 °C 3.5 °C 1007.3 hPa Calm     15% 0 mm 522.0 W/m2
16:28 34.1 °C 3.8 °C 1007 hPa Calm     15% 0 mm 504.0 W/m2
16:32 34.1 °C 2.8 °C 1007 hPa NNW 6.4 km/h 14.5 km/h 14% 0 mm 487.0 W/m2
16:41 34.1 °C 3.8 °C 1007 hPa Calm   3.2 km/h 15% 0 mm 471.0 W/m2
16:42 34.1 °C 2.8 °C 1007.3 hPa Calm   1.6 km/h 14% 0 mm 455.0 W/m2
16:52 34.2 °C 2.9 °C 1007 hPa NNW 9.7 km/h 9.7 km/h 14% 0 mm 422.0 W/m2
17:13 33.9 °C 2.7 °C 1007 hPa NNW 1.4 km/h 12.9 km/h 14% 0 mm 366.0 W/m2
17:21 33.8 °C 2.6 °C 1007 hPa Calm     14% 0 mm 336.0 W/m2
17:27 34 °C 2.7 °C 1006.7 hPa Calm   1.6 km/h 14% 0 mm 320.0 W/m2
17:33 33.9 °C 2.7 °C 1006.7 hPa Calm   6.4 km/h 14% 0 mm 276.0 W/m2
17:43 33.9 °C 2.7 °C 1006.7 hPa Calm   9.7 km/h 14% 0 mm 243.0 W/m2
18:05 33.9 °C 2.7 °C 1006.7 hPa Calm     14% 0 mm 172.0 W/m2
18:15 34 °C 2.7 °C 1006.3 hPa Calm     14% 0 mm 128.0 W/m2
18:23 33.7 °C 2.5 °C 1006.3 hPa Calm     14% 0 mm 93.0 W/m2
18:29 33.4 °C 2.3 °C 1006.3 hPa Calm     14% 0 mm 58.0 W/m2
18:34 33.3 °C 2.2 °C 1006.3 hPa Calm     14% 0 mm 42.0 W/m2
18:50 33.3 °C 2.2 °C 1006.3 hPa Calm     14% 0 mm 14.0 W/m2
19:00 32.9 °C 1.9 °C 1006.3 hPa Calm     14% 0 mm 9.0 W/m2
19:10 32.5 °C 2.5 °C 1006.3 hPa Calm     15% 0 mm 0.0 W/m2
19:19 31.9 °C 3 °C 1006.7 hPa Calm     16% 0 mm 0.0 W/m2
19:25 31.6 °C 1.8 °C 1006.7 hPa Calm     15% 0 mm 0.0 W/m2
19:35 31.8 °C 2 °C 1006.7 hPa Calm     15% 0 mm 0.0 W/m2
19:46 31.4 °C 2.6 °C 1006.7 hPa Calm     16% 0 mm 0.0 W/m2
19:56 30.8 °C 2.1 °C 1006.7 hPa Calm     16% 0 mm 0.0 W/m2
20:02 30.2 °C 2.4 °C 1006.7 hPa Calm     17% 0 mm 0.0 W/m2
20:19 29.7 °C 2 °C 1006.7 hPa Calm     17% 0 mm 0.0 W/m2
20:28 29.2 °C 2.4 °C 1007 hPa Calm     18% 0 mm 0.0 W/m2
20:43 28.8 °C 2.1 °C 1007 hPa Calm     18% 0 mm 0.0 W/m2
20:59 28.4 °C 2.6 °C 1007 hPa Calm     19% 0 mm 0.0 W/m2
21:19 28 °C 2.2 °C 1007.3 hPa Calm     19% 0 mm 0.0 W/m2
21:43 27.6 °C 1.9 °C 1007.3 hPa Calm     19% 0 mm 0.0 W/m2
21:50 27 °C 1.4 °C 1007.7 hPa Calm     19% 0 mm 0.0 W/m2
22:13 25.9 °C 1.2 °C 1008 hPa Calm     20% 0 mm 0.0 W/m2
22:21 26.2 °C 2.1 °C 1008 hPa Calm     21% 0 mm 0.0 W/m2
22:35 26.7 °C 1.9 °C 1008.4 hPa Calm     20% 0 mm 0.0 W/m2
Canyon Roadhouse, Fishriver Canyon, Namibia
Compliments of Weather Underground - 2.25 mb